Nicholson, PA (18446)

8:27 PM EDT on September 02, 2014 (GMT -0400)
Friedland Farms - Hop Bottom, PA | Change Station
CLOSE
Current Station
Personal Weather Station
Location: Hop Bottom, PA
Elevation: 1198 ft
Nearby Weather Stations

Elev 1198 ft 41.68 °N, 75.74 °W | Updated 6 minutes ago

Overcast
Overcast
75.6 °F
Feels Like 76 °F
N
0.0
Wind Variable Wind from SW
Gusts 2.0 mph

Today
High -- | Low -- °F
--% Chance of Precip.
Yesterday
High -- | Low -- °F
Precip. -- in
6:30 AM 7:34 PM
First Quarter, 56% visible
Pressure 29.79 in
Visibility 7.0 miles
Clouds Few 6500 ft
Scattered Clouds 8500 ft
Mostly Cloudy 11000 ft
Heat Index 76 °F
Dew Point 71 °F
Humidity 84%
Rainfall 0.02 in
Snow Depth Not available.
UV 0.0 out of 12
Pollen 7.60 out of 12
Air Quality Not available.
Flu Activity Not available.
METAR KAVP 022354Z 21007KT 7SM RA FEW065 SCT085 BKN110 27/19 A2982 RMK AO2 RAB47 SLP086 P0001 60001 T02720194 10317 20272 56009

More Conditions Fewer Conditions

Pressure 29.79 in
Visibility 7.0 miles
Clouds Few 6500 ft
Scattered Clouds 8500 ft
Mostly Cloudy 11000 ft
Heat Index 76 °F
Dew Point 71 °F
Humidity 84%
Rainfall 0.02 in
Snow Depth Not available.
UV 0.0 out of 12
Pollen 7.60 out of 12
Air Quality Not available.
Flu Activity Not available.
METAR KAVP 022354Z 21007KT 7SM RA FEW065 SCT085 BKN110 27/19 A2982 RMK AO2 RAB47 SLP086 P0001 60001 T02720194 10317 20272 56009

More Conditions Fewer Conditions

10-Day Weather Forecast

Almanac

Astronomy

Sep. 02, 2014 Rise Set
Actual Time 6:30 AM EDT 7:34 PM EDT
Civil Twilight 6:01 AM EDT 8:03 PM EDT
Nautical Twilight 5:27 AM EDT 8:36 PM EDT
Astronomical Twilight 4:51 AM EDT 9:12 PM EDT
Moon 2:17 PM EDT (9/2) No Moon Set
Length of Visible Light 14h 01m
Length of Day
13h 04m
Tomorrow will be 2m 41s shorter.
First Quarter, 56% of the Moon is Illuminated
Today
First Quarter
Sep 8
Full
Sep 15
Last Quarter
Sep 24
New
Oct 1
First Quarter

Today's Extremes

State Highs State Lows

Community

WunderPhotos

Upload Photos

1,749,816 photos uploaded!

Nearby

Snow Depth

Station Depth Elevation
No new snow has been reported.

Earthquake Activity

City Distance Mag. Time & Date
No recent earthquake activity has been reported nearby.
Minimum magnitude displayed is 2.5.

Coastal Water Temperatures

Place Temperature
No Stations Reporting

Nearby Weather Stations